Bulk Indonesia — 3FFO6 — position and weather

sailwx.info

Track history (hours):
 
Tides and Currents Weather Stations Pressure Air Temp Water Temp Dewpoint Dewpoint Depression Visibility Wind Speed Wind Dir Waves Ship Positions

Bulk Indonesia

Last reported at 2017-Oct-19 10:10 UTC. Time now 2017-Oct-19 16:51 UTC.
Position S 28°12' W 048°37'.

Length 235 m; draft 9 m.

Type: Cargo ship. MMSI: 371990000.

Date/timePositionNaut miles runAvg speedWind from/ knotsBaromVisibWave heightAir tempDewpointWater temp
2017-Oct-19 10:10S 28°12' W 048°37'0 0.1
2017-Oct-19 09:58S 28°12' W 048°37'0 0.0
2017-Oct-19 09:28S 28°12' W 048°37'  
2017-Oct-16 00:02S 24°40' W 046°32'112.2
2017-Oct-15 23:59S 24°40' W 046°32'612.4
2017-Oct-15 23:30S 24°34' W 046°29'612.4
2017-Oct-15 23:00S 24°29' W 046°27'612.3
2017-Oct-15 22:30S 24°23' W 046°24'612.4
2017-Oct-15 22:00S 24°17' W 046°23'612.5
2017-Oct-15 21:30S 24°11' W 046°22'510.7
2017-Oct-15 21:01S 24°05' W 046°21'4 8.3
2017-Oct-15 20:30S 24°01' W 046°20'0 0.4
2017-Oct-15 20:00S 24°01' W 046°20'0 0.4
2017-Oct-15 19:31S 24°01' W 046°20'2 3.1
2017-Oct-15 19:00S 24°03' W 046°20'2 3.8
2017-Oct-15 18:30S 24°05' W 046°20'0 0.1
2017-Oct-15 18:00S 24°05' W 046°20'0 0.0
2017-Oct-15 17:30S 24°05' W 046°20'0 0.1
2017-Oct-15 17:00S 24°05' W 046°20'0 0.1
2017-Oct-15 16:27S 24°05' W 046°20'0 0.6
2017-Oct-15 16:00S 24°05' W 046°20'2 3.9
2017-Oct-15 15:30S 24°07' W 046°21'4 7.9
2017-Oct-15 15:00S 24°11' W 046°21'3 2.7
2017-Oct-15 13:57S 24°13' W 046°19'0 0.0
2017-Oct-15 13:27S 24°13' W 046°19'0 0.0
2017-Oct-15 12:57S 24°13' W 046°19'0 0.1
2017-Oct-15 12:30S 24°13' W 046°19'0 0.0
2017-Oct-15 11:57S 24°13' W 046°19'0 0.0
2017-Oct-15 11:30S 24°13' W 046°19'0 0.1
2017-Oct-15 10:57S 24°13' W 046°19'0 0.0
2017-Oct-15 10:27S 24°13' W 046°19'0 0.1
2017-Oct-15 09:57S 24°13' W 046°19'0 0.1
2017-Oct-15 09:18S 24°13' W 046°19'0 0.3
2017-Oct-15 08:57S 24°13' W 046°19'0 0.0
2017-Oct-15 08:27S 24°13' W 046°19'0 0.0
2017-Oct-15 07:57S 24°13' W 046°19'0 0.0
2017-Oct-15 07:27S 24°13' W 046°19'0 0.0
2017-Oct-15 07:00S 24°13' W 046°19'0 0.0
2017-Oct-15 06:24S 24°13' W 046°19'0 0.0
2017-Oct-15 05:57S 24°13' W 046°19'0 0.0
2017-Oct-15 05:21S 24°13' W 046°19'0 0.0
2017-Oct-15 04:57S 24°13' W 046°19'0 0.0
2017-Oct-15 04:27S 24°13' W 046°19'0 0.0
2017-Oct-15 03:57S 24°13' W 046°19'0 0.1
2017-Oct-15 03:27S 24°13' W 046°19'0 0.0
2017-Oct-15 02:57S 24°13' W 046°19'0 0.1
2017-Oct-15 02:27S 24°13' W 046°19'0 0.0
2017-Oct-15 02:00S 24°13' W 046°19'0 0.0
2017-Oct-15 01:27S 24°13' W 046°19'0 0.0
2017-Oct-15 00:57S 24°13' W 046°19'0 0.0
2017-Oct-15 00:27S 24°13' W 046°19'0 0.0
2017-Oct-15 00:00S 24°13' W 046°19'0 0.0
2017-Oct-14 23:27S 24°13' W 046°19'0 0.0
2017-Oct-14 22:57S 24°13' W 046°19'0 0.0
2017-Oct-14 22:27S 24°13' W 046°19'0 0.0
2017-Oct-14 22:00S 24°13' W 046°19'0 0.0
2017-Oct-14 21:27S 24°13' W 046°19'0 0.0
2017-Oct-14 21:00S 24°13' W 046°19'0 0.0
2017-Oct-14 20:30S 24°13' W 046°19'0 0.0
2017-Oct-14 19:57S 24°13' W 046°19'0 0.0
2017-Oct-14 19:27S 24°13' W 046°19'0 0.0
2017-Oct-14 18:51S 24°13' W 046°19'0 0.0
2017-Oct-14 18:30S 24°13' W 046°19'0 0.0
2017-Oct-14 17:57S 24°13' W 046°19'0 0.0
2017-Oct-14 17:27S 24°13' W 046°19'0 0.0
2017-Oct-14 17:00S 24°13' W 046°19'0 0.0
2017-Oct-14 16:27S 24°13' W 046°19'0 0.1
2017-Oct-14 15:57S 24°13' W 046°19'0 0.0
2017-Oct-14 15:27S 24°13' W 046°19'0 0.0
2017-Oct-14 15:00S 24°13' W 046°19'0 0.0
2017-Oct-14 14:30S 24°13' W 046°19'0 0.0
2017-Oct-14 13:54S 24°13' W 046°19'0 0.0
2017-Oct-14 13:30S 24°13' W 046°19'0 0.1
2017-Oct-14 12:57S 24°13' W 046°19'0 0.0
2017-Oct-14 12:27S 24°13' W 046°19'0 0.1
2017-Oct-14 11:57S 24°13' W 046°19'0 0.0
2017-Oct-14 11:30S 24°13' W 046°19'0 0.0
2017-Oct-14 10:57S 24°13' W 046°19'0 0.1
2017-Oct-14 10:30S 24°13' W 046°19'0 0.0
2017-Oct-14 09:57S 24°13' W 046°19'0 0.1
2017-Oct-14 09:30S 24°13' W 046°19'0 0.0
2017-Oct-14 08:57S 24°13' W 046°19'0 0.1
2017-Oct-14 08:30S 24°13' W 046°19'0 0.1
2017-Oct-14 07:57S 24°13' W 046°19'0 0.0
2017-Oct-14 07:27S 24°13' W 046°19'0 0.0
2017-Oct-14 06:57S 24°13' W 046°19'0 0.0
2017-Oct-14 06:27S 24°13' W 046°19'0 0.0
2017-Oct-14 05:57S 24°13' W 046°19'0 0.0
2017-Oct-14 05:27S 24°13' W 046°19'0 0.1
2017-Oct-14 05:00S 24°13' W 046°19'0 0.0
2017-Oct-14 04:30S 24°13' W 046°19'0 0.1
2017-Oct-14 03:54S 24°13' W 046°19'0 0.0
2017-Oct-14 03:30S 24°13' W 046°19'0 0.1
2017-Oct-14 02:51S 24°13' W 046°19'0 0.1
2017-Oct-14 02:27S 24°13' W 046°19'0 0.2
2017-Oct-14 02:00S 24°13' W 046°19'0 0.0
2017-Oct-14 01:27S 24°13' W 046°19'0 0.0
2017-Oct-14 01:00S 24°13' W 046°19'0 0.0
2017-Oct-14 00:30S 24°13' W 046°19'0 0.0
2017-Oct-14 00:00S 24°13' W 046°19'0 0.0
2017-Oct-13 23:30S 24°13' W 046°19'0 0.0
2017-Oct-13 23:00S 24°13' W 046°19'0 0.0
2017-Oct-13 22:30S 24°13' W 046°19'0 0.0
2017-Oct-13 21:57S 24°13' W 046°19'0 0.1
2017-Oct-13 21:27S 24°13' W 046°19'0 0.0
2017-Oct-13 20:57S 24°13' W 046°19'0 0.0
2017-Oct-13 20:30S 24°13' W 046°19'0 0.0
2017-Oct-13 19:51S 24°13' W 046°19'0 0.0
2017-Oct-13 19:27S 24°13' W 046°19'0 0.0
2017-Oct-13 18:54S 24°13' W 046°19'0 0.1
2017-Oct-13 18:27S 24°13' W 046°19'0 0.0
2017-Oct-13 17:45S 24°13' W 046°19'0 0.1
2017-Oct-13 17:27S 24°13' W 046°19'0 0.0
2017-Oct-13 16:57S 24°13' W 046°19'0 0.0
2017-Oct-13 16:30S 24°13' W 046°19'0 0.0
2017-Oct-13 15:57S 24°13' W 046°19'0 0.1
2017-Oct-13 15:27S 24°13' W 046°19'0 0.1
2017-Oct-13 14:57S 24°13' W 046°19'0 0.0
2017-Oct-13 14:21S 24°13' W 046°19'0 0.0
2017-Oct-13 13:51S 24°13' W 046°19'0 0.0
2017-Oct-13 13:30S 24°13' W 046°19'0 0.0
2017-Oct-13 12:57S 24°13' W 046°19'0 0.0
2017-Oct-13 12:27S 24°13' W 046°19'0 0.0
2017-Oct-13 11:57S 24°13' W 046°19'0 0.0
2017-Oct-13 11:27S 24°13' W 046°19'0 0.0
2017-Oct-13 10:57S 24°13' W 046°19'0 0.0
2017-Oct-13 10:27S 24°13' W 046°19'0 0.1
2017-Oct-13 09:57S 24°13' W 046°19'0 0.0
2017-Oct-13 09:30S 24°13' W 046°19'0 0.0
2017-Oct-13 09:00S 24°13' W 046°19'0 0.0
2017-Oct-13 08:27S 24°13' W 046°19'0 0.0
2017-Oct-13 07:57S 24°13' W 046°19'0 0.0
2017-Oct-13 07:30S 24°13' W 046°19'0 0.0
2017-Oct-13 06:57S 24°13' W 046°19'0 0.0
2017-Oct-13 06:30S 24°13' W 046°19'0 0.0
2017-Oct-13 05:57S 24°13' W 046°19'0 0.0
2017-Oct-13 05:21S 24°13' W 046°19'0 0.0
2017-Oct-13 04:57S 24°13' W 046°19'0 0.0
2017-Oct-13 04:30S 24°13' W 046°19'0 0.0
2017-Oct-13 03:54S 24°13' W 046°19'0 0.1
2017-Oct-13 03:30S 24°13' W 046°19'0 0.0
2017-Oct-13 02:57S 24°13' W 046°19'0 0.0
2017-Oct-13 02:27S 24°13' W 046°19'0 0.0
2017-Oct-13 01:57S 24°13' W 046°19'0 0.2
2017-Oct-13 01:30S 24°13' W 046°19'1 2.5
2017-Oct-13 01:00S 24°12' W 046°20'3 5.8
2017-Oct-13 00:30S 24°10' W 046°22'5 9.0
2017-Oct-13 00:00S 24°05' W 046°21'1 2.7
2017-Oct-12 23:30S 24°04' W 046°21'0 0.0
2017-Oct-12 23:00S 24°04' W 046°21'0 0.0
2017-Oct-12 22:30S 24°04' W 046°21'0 0.0
2017-Oct-12 22:00S 24°04' W 046°21'0 0.0
2017-Oct-12 21:27S 24°04' W 046°21'0 0.3
2017-Oct-12 20:57S 24°04' W 046°21'0 0.3
2017-Oct-12 20:30S 24°04' W 046°21'1 1.1
2017-Oct-12 20:01S 24°04' W 046°22'2 3.8
2017-Oct-12 19:29S 24°06' W 046°21'0 0.1
2017-Oct-12 18:59S 24°06' W 046°21'0 0.0
2017-Oct-12 18:29S 24°06' W 046°21'0 0.0
2017-Oct-12 17:59S 24°06' W 046°21'0 0.0
2017-Oct-12 17:29S 24°06' W 046°21'0 0.0
2017-Oct-12 16:56S 24°06' W 046°21'0 0.0
2017-Oct-12 16:29S 24°06' W 046°21'0 0.0
2017-Oct-12 15:59S 24°06' W 046°21'0 0.0
2017-Oct-12 15:23S 24°06' W 046°21'0 0.1
2017-Oct-12 14:56S 24°06' W 046°21'0 0.0
2017-Oct-12 14:29S 24°06' W 046°21'0 0.0
2017-Oct-12 13:59S 24°06' W 046°21'0 0.0
2017-Oct-12 13:29S 24°06' W 046°21'0 0.1
2017-Oct-12 12:53S 24°06' W 046°21'0 0.1
2017-Oct-12 12:29S 24°06' W 046°21'0 0.0
2017-Oct-12 11:53S 24°06' W 046°21'0 0.0
2017-Oct-12 11:29S 24°06' W 046°21'0 0.1
2017-Oct-12 10:59S 24°06' W 046°21'0 0.0
2017-Oct-12 10:29S 24°06' W 046°21'0 0.1
2017-Oct-12 09:56S 24°06' W 046°21'0 0.0
2017-Oct-12 09:29S 24°06' W 046°21'0 0.1
2017-Oct-12 08:59S 24°06' W 046°21'0 0.0
2017-Oct-12 08:29S 24°06' W 046°21'0 0.1
2017-Oct-12 07:59S 24°06' W 046°21'0 0.0
2017-Oct-12 07:29S 24°06' W 046°21'0 0.0
2017-Oct-12 06:59S 24°06' W 046°21'0 0.1
2017-Oct-12 06:29S 24°06' W 046°21'0 0.0
2017-Oct-12 05:59S 24°06' W 046°21'0 0.1
2017-Oct-12 05:29S 24°06' W 046°21'0 0.0
2017-Oct-12 05:00S 24°06' W 046°21'0 0.1
2017-Oct-12 04:30S 24°06' W 046°21'0 0.0
2017-Oct-12 04:00S 24°06' W 046°21'0 0.1
2017-Oct-12 03:30S 24°06' W 046°21'0 0.1
2017-Oct-12 03:00S 24°06' W 046°21'0 0.2
2017-Oct-12 02:30S 24°06' W 046°21'1 2.6
2017-Oct-12 02:00S 24°06' W 046°22'2 5.0
2017-Oct-12 01:30S 24°08' W 046°23'5 9.0
2017-Oct-12 01:00S 24°13' W 046°24'713.1
2017-Oct-12 00:30S 24°19' W 046°23'713.4
2017-Oct-12 00:00S 24°25' W 046°19'713.4
2017-Oct-11 23:30S 24°30' W 046°14'611.6
2017-Oct-11 22:58S 24°31' W 046°07'3913.0
2017-Oct-11 19:57S 24°27' W 045°24'1813.3
2017-Oct-11 18:36S 24°26' W 045°05'313.5
2017-Oct-11 18:21S 24°25' W 045°01'513.4
2017-Oct-11 17:58S 24°24' W 044°55'913.3
2017-Oct-11 17:18S 24°24' W 044°46'  
Track history (hours):
 
Tides and Currents Weather Stations Pressure Air Temp Water Temp Dewpoint Dewpoint Depression Visibility Wind Speed Wind Dir Waves Ship Positions

Bulk Indonesia

Last reported at 2017-Oct-19 10:10 UTC. Time now 2017-Oct-19 16:51 UTC.
Position S 28°12' W 048°37'.

Length 235 m; draft 9 m.

Type: Cargo ship. MMSI: 371990000.

Date/timePositionNaut miles runAvg speedWind from/ knotsBaromVisibWave heightAir tempDewpointWater temp
2017-Oct-19 10:10S 28°12' W 048°37'0 0.1
2017-Oct-19 09:58S 28°12' W 048°37'0 0.0
2017-Oct-19 09:28S 28°12' W 048°37'  
2017-Oct-16 00:02S 24°40' W 046°32'112.2
2017-Oct-15 23:59S 24°40' W 046°32'612.4
2017-Oct-15 23:30S 24°34' W 046°29'612.4
2017-Oct-15 23:00S 24°29' W 046°27'612.3
2017-Oct-15 22:30S 24°23' W 046°24'612.4
2017-Oct-15 22:00S 24°17' W 046°23'612.5
2017-Oct-15 21:30S 24°11' W 046°22'510.7
2017-Oct-15 21:01S 24°05' W 046°21'4 8.3
2017-Oct-15 20:30S 24°01' W 046°20'0 0.4
2017-Oct-15 20:00S 24°01' W 046°20'0 0.4
2017-Oct-15 19:31S 24°01' W 046°20'2 3.1
2017-Oct-15 19:00S 24°03' W 046°20'2 3.8
2017-Oct-15 18:30S 24°05' W 046°20'0 0.1
2017-Oct-15 18:00S 24°05' W 046°20'0 0.0
2017-Oct-15 17:30S 24°05' W 046°20'0 0.1
2017-Oct-15 17:00S 24°05' W 046°20'0 0.1
2017-Oct-15 16:27S 24°05' W 046°20'0 0.6
2017-Oct-15 16:00S 24°05' W 046°20'2 3.9
2017-Oct-15 15:30S 24°07' W 046°21'4 7.9
2017-Oct-15 15:00S 24°11' W 046°21'3 2.7
2017-Oct-15 13:57S 24°13' W 046°19'0 0.0
2017-Oct-15 13:27S 24°13' W 046°19'0 0.0
2017-Oct-15 12:57S 24°13' W 046°19'0 0.1
2017-Oct-15 12:30S 24°13' W 046°19'0 0.0
2017-Oct-15 11:57S 24°13' W 046°19'0 0.0
2017-Oct-15 11:30S 24°13' W 046°19'0 0.1
2017-Oct-15 10:57S 24°13' W 046°19'0 0.0
2017-Oct-15 10:27S 24°13' W 046°19'0 0.1
2017-Oct-15 09:57S 24°13' W 046°19'0 0.1
2017-Oct-15 09:18S 24°13' W 046°19'0 0.3
2017-Oct-15 08:57S 24°13' W 046°19'0 0.0
2017-Oct-15 08:27S 24°13' W 046°19'0 0.0
2017-Oct-15 07:57S 24°13' W 046°19'0 0.0
2017-Oct-15 07:27S 24°13' W 046°19'0 0.0
2017-Oct-15 07:00S 24°13' W 046°19'0 0.0
2017-Oct-15 06:24S 24°13' W 046°19'0 0.0
2017-Oct-15 05:57S 24°13' W 046°19'0 0.0
2017-Oct-15 05:21S 24°13' W 046°19'0 0.0
2017-Oct-15 04:57S 24°13' W 046°19'0 0.0
2017-Oct-15 04:27S 24°13' W 046°19'0 0.0
2017-Oct-15 03:57S 24°13' W 046°19'0 0.1
2017-Oct-15 03:27S 24°13' W 046°19'0 0.0
2017-Oct-15 02:57S 24°13' W 046°19'0 0.1
2017-Oct-15 02:27S 24°13' W 046°19'0 0.0
2017-Oct-15 02:00S 24°13' W 046°19'0 0.0
2017-Oct-15 01:27S 24°13' W 046°19'0 0.0
2017-Oct-15 00:57S 24°13' W 046°19'0 0.0
2017-Oct-15 00:27S 24°13' W 046°19'0 0.0
2017-Oct-15 00:00S 24°13' W 046°19'0 0.0
2017-Oct-14 23:27S 24°13' W 046°19'0 0.0
2017-Oct-14 22:57S 24°13' W 046°19'0 0.0
2017-Oct-14 22:27S 24°13' W 046°19'0 0.0
2017-Oct-14 22:00S 24°13' W 046°19'0 0.0
2017-Oct-14 21:27S 24°13' W 046°19'0 0.0
2017-Oct-14 21:00S 24°13' W 046°19'0 0.0
2017-Oct-14 20:30S 24°13' W 046°19'0 0.0
2017-Oct-14 19:57S 24°13' W 046°19'0 0.0
2017-Oct-14 19:27S 24°13' W 046°19'0 0.0
2017-Oct-14 18:51S 24°13' W 046°19'0 0.0
2017-Oct-14 18:30S 24°13' W 046°19'0 0.0
2017-Oct-14 17:57S 24°13' W 046°19'0 0.0
2017-Oct-14 17:27S 24°13' W 046°19'0 0.0
2017-Oct-14 17:00S 24°13' W 046°19'0 0.0
2017-Oct-14 16:27S 24°13' W 046°19'0 0.1
2017-Oct-14 15:57S 24°13' W 046°19'0 0.0
2017-Oct-14 15:27S 24°13' W 046°19'0 0.0
2017-Oct-14 15:00S 24°13' W 046°19'0 0.0
2017-Oct-14 14:30S 24°13' W 046°19'0 0.0
2017-Oct-14 13:54S 24°13' W 046°19'0 0.0
2017-Oct-14 13:30S 24°13' W 046°19'0 0.1
2017-Oct-14 12:57S 24°13' W 046°19'0 0.0
2017-Oct-14 12:27S 24°13' W 046°19'0 0.1
2017-Oct-14 11:57S 24°13' W 046°19'0 0.0
2017-Oct-14 11:30S 24°13' W 046°19'0 0.0
2017-Oct-14 10:57S 24°13' W 046°19'0 0.1
2017-Oct-14 10:30S 24°13' W 046°19'0 0.0
2017-Oct-14 09:57S 24°13' W 046°19'0 0.1
2017-Oct-14 09:30S 24°13' W 046°19'0 0.0
2017-Oct-14 08:57S 24°13' W 046°19'0 0.1
2017-Oct-14 08:30S 24°13' W 046°19'0 0.1
2017-Oct-14 07:57S 24°13' W 046°19'0 0.0
2017-Oct-14 07:27S 24°13' W 046°19'0 0.0
2017-Oct-14 06:57S 24°13' W 046°19'0 0.0
2017-Oct-14 06:27S 24°13' W 046°19'0 0.0
2017-Oct-14 05:57S 24°13' W 046°19'0 0.0
2017-Oct-14 05:27S 24°13' W 046°19'0 0.1
2017-Oct-14 05:00S 24°13' W 046°19'0 0.0
2017-Oct-14 04:30S 24°13' W 046°19'0 0.1
2017-Oct-14 03:54S 24°13' W 046°19'0 0.0
2017-Oct-14 03:30S 24°13' W 046°19'0 0.1
2017-Oct-14 02:51S 24°13' W 046°19'0 0.1
2017-Oct-14 02:27S 24°13' W 046°19'0 0.2
2017-Oct-14 02:00S 24°13' W 046°19'0 0.0
2017-Oct-14 01:27S 24°13' W 046°19'0 0.0
2017-Oct-14 01:00S 24°13' W 046°19'0 0.0
2017-Oct-14 00:30S 24°13' W 046°19'0 0.0
2017-Oct-14 00:00S 24°13' W 046°19'0 0.0
2017-Oct-13 23:30S 24°13' W 046°19'0 0.0
2017-Oct-13 23:00S 24°13' W 046°19'0 0.0
2017-Oct-13 22:30S 24°13' W 046°19'0 0.0
2017-Oct-13 21:57S 24°13' W 046°19'0 0.1
2017-Oct-13 21:27S 24°13' W 046°19'0 0.0
2017-Oct-13 20:57S 24°13' W 046°19'0 0.0
2017-Oct-13 20:30S 24°13' W 046°19'0 0.0
2017-Oct-13 19:51S 24°13' W 046°19'0 0.0
2017-Oct-13 19:27S 24°13' W 046°19'0 0.0
2017-Oct-13 18:54S 24°13' W 046°19'0 0.1
2017-Oct-13 18:27S 24°13' W 046°19'0 0.0
2017-Oct-13 17:45S 24°13' W 046°19'0 0.1
2017-Oct-13 17:27S 24°13' W 046°19'0 0.0
2017-Oct-13 16:57S 24°13' W 046°19'0 0.0
2017-Oct-13 16:30S 24°13' W 046°19'0 0.0
2017-Oct-13 15:57S 24°13' W 046°19'0 0.1
2017-Oct-13 15:27S 24°13' W 046°19'0 0.1
2017-Oct-13 14:57S 24°13' W 046°19'0 0.0
2017-Oct-13 14:21S 24°13' W 046°19'0 0.0
2017-Oct-13 13:51S 24°13' W 046°19'0 0.0
2017-Oct-13 13:30S 24°13' W 046°19'0 0.0
2017-Oct-13 12:57S 24°13' W 046°19'0 0.0
2017-Oct-13 12:27S 24°13' W 046°19'0 0.0
2017-Oct-13 11:57S 24°13' W 046°19'0 0.0
2017-Oct-13 11:27S 24°13' W 046°19'0 0.0
2017-Oct-13 10:57S 24°13' W 046°19'0 0.0
2017-Oct-13 10:27S 24°13' W 046°19'0 0.1
2017-Oct-13 09:57S 24°13' W 046°19'0 0.0
2017-Oct-13 09:30S 24°13' W 046°19'0 0.0
2017-Oct-13 09:00S 24°13' W 046°19'0 0.0
2017-Oct-13 08:27S 24°13' W 046°19'0 0.0
2017-Oct-13 07:57S 24°13' W 046°19'0 0.0
2017-Oct-13 07:30S 24°13' W 046°19'0 0.0
2017-Oct-13 06:57S 24°13' W 046°19'0 0.0
2017-Oct-13 06:30S 24°13' W 046°19'0 0.0
2017-Oct-13 05:57S 24°13' W 046°19'0 0.0
2017-Oct-13 05:21S 24°13' W 046°19'0 0.0
2017-Oct-13 04:57S 24°13' W 046°19'0 0.0
2017-Oct-13 04:30S 24°13' W 046°19'0 0.0
2017-Oct-13 03:54S 24°13' W 046°19'0 0.1
2017-Oct-13 03:30S 24°13' W 046°19'0 0.0
2017-Oct-13 02:57S 24°13' W 046°19'0 0.0
2017-Oct-13 02:27S 24°13' W 046°19'0 0.0
2017-Oct-13 01:57S 24°13' W 046°19'0 0.2
2017-Oct-13 01:30S 24°13' W 046°19'1 2.5
2017-Oct-13 01:00S 24°12' W 046°20'3 5.8
2017-Oct-13 00:30S 24°10' W 046°22'5 9.0
2017-Oct-13 00:00S 24°05' W 046°21'1 2.7
2017-Oct-12 23:30S 24°04' W 046°21'0 0.0
2017-Oct-12 23:00S 24°04' W 046°21'0 0.0
2017-Oct-12 22:30S 24°04' W 046°21'0 0.0
2017-Oct-12 22:00S 24°04' W 046°21'0 0.0
2017-Oct-12 21:27S 24°04' W 046°21'0 0.3
2017-Oct-12 20:57S 24°04' W 046°21'0 0.3
2017-Oct-12 20:30S 24°04' W 046°21'1 1.1
2017-Oct-12 20:01S 24°04' W 046°22'2 3.8
2017-Oct-12 19:29S 24°06' W 046°21'0 0.1
2017-Oct-12 18:59S 24°06' W 046°21'0 0.0
2017-Oct-12 18:29S 24°06' W 046°21'0 0.0
2017-Oct-12 17:59S 24°06' W 046°21'0 0.0
2017-Oct-12 17:29S 24°06' W 046°21'0 0.0
2017-Oct-12 16:56S 24°06' W 046°21'0 0.0
2017-Oct-12 16:29S 24°06' W 046°21'0 0.0
2017-Oct-12 15:59S 24°06' W 046°21'0 0.0
2017-Oct-12 15:23S 24°06' W 046°21'0 0.1
2017-Oct-12 14:56S 24°06' W 046°21'0 0.0
2017-Oct-12 14:29S 24°06' W 046°21'0 0.0
2017-Oct-12 13:59S 24°06' W 046°21'0 0.0
2017-Oct-12 13:29S 24°06' W 046°21'0 0.1
2017-Oct-12 12:53S 24°06' W 046°21'0 0.1
2017-Oct-12 12:29S 24°06' W 046°21'0 0.0
2017-Oct-12 11:53S 24°06' W 046°21'0 0.0
2017-Oct-12 11:29S 24°06' W 046°21'0 0.1
2017-Oct-12 10:59S 24°06' W 046°21'0 0.0
2017-Oct-12 10:29S 24°06' W 046°21'0 0.1
2017-Oct-12 09:56S 24°06' W 046°21'0 0.0
2017-Oct-12 09:29S 24°06' W 046°21'0 0.1
2017-Oct-12 08:59S 24°06' W 046°21'0 0.0
2017-Oct-12 08:29S 24°06' W 046°21'0 0.1
2017-Oct-12 07:59S 24°06' W 046°21'0 0.0
2017-Oct-12 07:29S 24°06' W 046°21'0 0.0
2017-Oct-12 06:59S 24°06' W 046°21'0 0.1
2017-Oct-12 06:29S 24°06' W 046°21'0 0.0
2017-Oct-12 05:59S 24°06' W 046°21'0 0.1
2017-Oct-12 05:29S 24°06' W 046°21'0 0.0
2017-Oct-12 05:00S 24°06' W 046°21'0 0.1
2017-Oct-12 04:30S 24°06' W 046°21'0 0.0
2017-Oct-12 04:00S 24°06' W 046°21'0 0.1
2017-Oct-12 03:30S 24°06' W 046°21'0 0.1
2017-Oct-12 03:00S 24°06' W 046°21'0 0.2
2017-Oct-12 02:30S 24°06' W 046°21'1 2.6
2017-Oct-12 02:00S 24°06' W 046°22'2 5.0
2017-Oct-12 01:30S 24°08' W 046°23'5 9.0
2017-Oct-12 01:00S 24°13' W 046°24'713.1
2017-Oct-12 00:30S 24°19' W 046°23'713.4
2017-Oct-12 00:00S 24°25' W 046°19'713.4
2017-Oct-11 23:30S 24°30' W 046°14'611.6
2017-Oct-11 22:58S 24°31' W 046°07'3913.0
2017-Oct-11 19:57S 24°27' W 045°24'1813.3
2017-Oct-11 18:36S 24°26' W 045°05'313.5
2017-Oct-11 18:21S 24°25' W 045°01'513.4
2017-Oct-11 17:58S 24°24' W 044°55'913.3
2017-Oct-11 17:18S 24°24' W 044°46'  

Dump ship's entire track history